createdAt,value
2023-04-11T00:01:33.546Z,0.90
2023-04-11T00:04:02.081Z,0.88
2023-04-11T00:06:31.151Z,0.93
2023-04-11T00:08:59.510Z,0.90
2023-04-11T00:11:27.629Z,1.00
2023-04-11T00:13:57.673Z,1.00
2023-04-11T00:16:26.785Z,1.08
2023-04-11T00:18:57.328Z,0.95
2023-04-11T00:21:25.748Z,0.93
2023-04-11T00:23:54.469Z,1.00
2023-04-11T00:26:23.080Z,0.90
2023-04-11T00:28:52.639Z,1.70
2023-04-11T00:31:21.204Z,0.93
2023-04-11T00:33:49.572Z,0.90
2023-04-11T00:36:19.245Z,0.70
2023-04-11T00:38:47.478Z,0.80
2023-04-11T00:41:15.791Z,0.57
2023-04-11T00:43:44.427Z,0.70
2023-04-11T00:46:12.699Z,0.80
2023-04-11T00:48:44.326Z,0.70
2023-04-11T00:51:12.505Z,0.82
2023-04-11T00:53:46.758Z,0.70
2023-04-11T00:56:15.118Z,0.90
2023-04-11T00:58:43.559Z,0.80
2023-04-11T01:01:11.972Z,0.93
2023-04-11T01:03:41.327Z,1.08
2023-04-11T01:06:12.292Z,1.50
2023-04-11T01:08:43.155Z,1.00
2023-04-11T01:11:16.613Z,1.30
2023-04-11T01:13:45.732Z,1.27
2023-04-11T01:16:15.130Z,1.60
2023-04-11T01:18:43.994Z,1.65
2023-04-11T01:21:20.623Z,1.95
2023-04-11T01:23:52.900Z,2.17
2023-04-11T01:26:22.011Z,1.90
2023-04-11T01:28:50.454Z,1.85
2023-04-11T01:31:18.767Z,2.03
2023-04-11T01:33:47.541Z,1.80
2023-04-11T01:36:16.475Z,1.52
2023-04-11T01:38:44.870Z,1.77
2023-04-11T01:41:17.768Z,1.75
2023-04-11T01:43:46.902Z,1.70
2023-04-11T01:46:16.255Z,1.70
2023-04-11T01:48:45.950Z,1.65
2023-04-11T01:51:14.414Z,1.50
2023-04-11T01:53:47.397Z,1.45
2023-04-11T01:56:17.224Z,1.20
2023-04-11T01:58:45.652Z,1.40
2023-04-11T02:01:14.407Z,1.50
2023-04-11T02:03:43.206Z,1.60
2023-04-11T02:06:12.128Z,1.38
2023-04-11T02:08:40.524Z,3.22
2023-04-11T02:11:09.215Z,1.52
2023-04-11T02:13:39.083Z,1.63
2023-04-11T02:16:08.937Z,1.40
2023-04-11T02:18:41.149Z,1.20
2023-04-11T02:21:09.790Z,1.38
2023-04-11T02:23:38.086Z,1.20
2023-04-11T02:26:06.560Z,1.20
2023-04-11T02:28:36.586Z,1.17
2023-04-11T02:31:06.437Z,1.50
2023-04-11T02:33:35.024Z,1.17
2023-04-11T02:36:03.732Z,1.30
2023-04-11T02:38:31.999Z,1.50
2023-04-11T02:41:00.546Z,1.30
2023-04-11T02:43:28.923Z,1.50
2023-04-11T02:46:09.526Z,1.23
2023-04-11T02:48:41.987Z,1.20
2023-04-11T02:51:10.395Z,1.27
2023-04-11T02:53:39.232Z,1.23
2023-04-11T02:56:10.815Z,1.20
2023-04-11T02:58:41.950Z,1.20
2023-04-11T03:01:12.094Z,1.10
2023-04-11T03:03:42.401Z,1.52
2023-04-11T03:06:11.287Z,1.30
2023-04-11T03:08:39.708Z,1.27
2023-04-11T03:11:08.317Z,0.95
2023-04-11T03:13:37.703Z,1.02
2023-04-11T03:16:06.931Z,1.10
2023-04-11T03:18:35.296Z,0.88
2023-04-11T03:21:07.696Z,1.27
2023-04-11T03:23:36.217Z,0.93
2023-04-11T03:26:05.135Z,1.00
2023-04-11T03:28:33.862Z,1.00
2023-04-11T03:31:02.197Z,1.15
2023-04-11T03:33:33.873Z,1.10
2023-04-11T03:36:02.631Z,1.20
2023-04-11T03:38:32.860Z,1.00
2023-04-11T03:41:01.027Z,1.00
2023-04-11T03:43:29.340Z,1.20
2023-04-11T03:45:57.669Z,1.25
2023-04-11T03:48:30.644Z,1.10
2023-04-11T03:50:59.560Z,1.45
2023-04-11T03:53:27.816Z,1.10
2023-04-11T03:55:57.599Z,1.20
2023-04-11T03:58:27.147Z,0.90
2023-04-11T04:00:55.500Z,1.50
2023-04-11T04:03:25.097Z,1.30
2023-04-11T04:05:53.483Z,1.27
2023-04-11T04:08:21.791Z,1.10
2023-04-11T04:10:50.939Z,1.40
2023-04-11T04:13:20.632Z,1.10
2023-04-11T04:15:49.124Z,1.20
2023-04-11T04:18:20.388Z,1.20
2023-04-11T04:20:49.301Z,1.20
2023-04-11T04:23:18.215Z,1.85
2023-04-11T04:25:49.779Z,1.30
2023-04-11T04:28:22.447Z,1.15
2023-04-11T04:30:54.325Z,1.30
2023-04-11T04:33:23.261Z,1.30
2023-04-11T04:35:52.548Z,0.90
2023-04-11T04:38:20.924Z,1.30
2023-04-11T04:40:50.631Z,1.48
2023-04-11T04:43:24.546Z,1.30
2023-04-11T04:45:54.523Z,1.50
2023-04-11T04:48:25.524Z,1.15
2023-04-11T04:50:54.111Z,1.30
2023-04-11T04:53:22.480Z,1.20
2023-04-11T04:55:50.930Z,1.20
2023-04-11T04:58:19.159Z,1.50
2023-04-11T05:00:49.295Z,1.35
2023-04-11T05:03:21.002Z,1.52
2023-04-11T05:05:49.651Z,1.30
2023-04-11T05:08:20.600Z,1.25
2023-04-11T05:10:49.330Z,1.42
2023-04-11T05:13:17.727Z,1.30
2023-04-11T05:15:49.275Z,1.25
2023-04-11T05:18:19.239Z,1.05
2023-04-11T05:20:47.454Z,1.55
2023-04-11T05:23:16.277Z,1.75
2023-04-11T05:25:45.124Z,1.10
2023-04-11T05:28:14.347Z,1.58
2023-04-11T05:30:42.555Z,2.22
2023-04-11T05:33:12.684Z,1.73
2023-04-11T05:35:42.712Z,1.42
2023-04-11T05:38:11.202Z,1.42
2023-04-11T05:40:39.448Z,1.52
2023-04-11T05:43:08.376Z,2.15
2023-04-11T05:45:36.647Z,1.90
2023-04-11T05:48:06.954Z,2.13
2023-04-11T05:50:35.540Z,1.63
2023-04-11T05:53:08.127Z,1.98
2023-04-11T05:55:37.975Z,3.35
2023-04-11T05:58:06.477Z,1.67
2023-04-11T06:00:34.654Z,1.67
2023-04-11T06:03:03.458Z,2.45
2023-04-11T06:05:33.653Z,1.80
2023-04-11T06:08:03.228Z,1.75
2023-04-11T06:10:33.049Z,1.63
2023-04-11T06:13:01.288Z,1.60
2023-04-11T06:15:30.616Z,2.00
2023-04-11T06:17:59.192Z,1.48
2023-04-11T06:20:27.508Z,1.75
2023-04-11T06:22:57.160Z,1.48
2023-04-11T06:25:25.561Z,2.00
2023-04-11T06:27:55.180Z,1.48
2023-04-11T06:30:23.533Z,1.85
2023-04-11T06:32:52.830Z,2.13
2023-04-11T06:35:25.689Z,1.70
2023-04-11T06:37:54.052Z,1.70
2023-04-11T06:40:22.322Z,1.80
2023-04-11T06:42:50.571Z,2.10
2023-04-11T06:45:20.958Z,2.95
2023-04-11T06:47:49.207Z,2.10
2023-04-11T06:50:17.782Z,2.10
2023-04-11T06:52:47.067Z,1.90
2023-04-11T06:55:15.692Z,1.85
2023-04-11T06:57:47.142Z,2.35
2023-04-11T07:00:17.096Z,1.42
2023-04-11T07:02:47.068Z,1.85
2023-04-11T07:05:16.635Z,2.03
2023-04-11T07:07:45.172Z,2.00
2023-04-11T07:10:14.472Z,2.00
2023-04-11T07:12:42.744Z,1.70
2023-04-11T07:15:12.000Z,1.95
2023-04-11T07:17:40.420Z,2.17
2023-04-11T07:20:11.505Z,1.73
2023-04-11T07:22:43.210Z,1.85
2023-04-11T07:25:11.901Z,2.22
2023-04-11T07:27:43.983Z,2.13
2023-04-11T07:30:12.974Z,1.92
2023-04-11T07:32:41.477Z,2.67
2023-04-11T07:35:11.660Z,2.72
2023-04-11T07:37:40.525Z,2.17
2023-04-11T07:40:11.944Z,2.15
2023-04-11T07:42:41.447Z,2.50
2023-04-11T07:45:11.570Z,2.58
2023-04-11T07:47:39.887Z,2.13
2023-04-11T07:50:10.930Z,1.70
2023-04-11T07:52:39.150Z,2.10
2023-04-11T07:55:08.227Z,1.88
2023-04-11T07:57:36.689Z,2.15
2023-04-11T08:00:11.545Z,2.20
2023-04-11T08:02:40.738Z,2.22
2023-04-11T08:05:11.202Z,2.67
2023-04-11T08:07:39.718Z,2.30
2023-04-11T08:10:09.246Z,2.03
2023-04-11T08:12:37.735Z,2.20
2023-04-11T08:15:06.979Z,1.98
2023-04-11T08:17:38.022Z,1.90
2023-04-11T08:20:09.425Z,1.60
2023-04-11T08:22:39.584Z,1.45
2023-04-11T08:25:09.814Z,1.50
2023-04-11T08:27:38.300Z,2.10
2023-04-11T08:30:09.355Z,1.70
2023-04-11T08:32:37.791Z,1.92
2023-04-11T08:35:06.762Z,1.80
2023-04-11T08:37:35.234Z,2.20
2023-04-11T08:40:07.310Z,1.73
2023-04-11T08:42:36.153Z,2.13
2023-04-11T08:45:08.517Z,2.50
2023-04-11T08:47:37.243Z,2.70
2023-04-11T08:50:06.597Z,2.10
2023-04-11T08:52:35.636Z,2.10
2023-04-11T08:55:05.490Z,2.42
2023-04-11T08:57:35.152Z,2.35
2023-04-11T09:00:11.156Z,2.25
2023-04-11T09:02:59.484Z,2.72
2023-04-11T09:05:32.334Z,2.60
2023-04-11T09:08:03.518Z,2.50
2023-04-11T09:10:33.550Z,3.20
2023-04-11T09:13:03.343Z,2.53
2023-04-11T09:15:32.840Z,2.03
2023-04-11T09:18:01.388Z,2.25
2023-04-11T09:20:31.334Z,2.42
2023-04-11T09:23:00.134Z,2.60
2023-04-11T09:25:29.173Z,2.35
2023-04-11T09:28:11.264Z,2.00
2023-04-11T09:30:39.552Z,2.20
2023-04-11T09:33:22.842Z,2.00
2023-04-11T09:35:53.396Z,2.13
2023-04-11T09:38:32.455Z,2.67
2023-04-11T09:41:02.327Z,1.83
2023-04-11T09:43:50.593Z,2.40
2023-04-11T09:46:21.316Z,2.03
2023-04-11T09:48:50.624Z,2.15
2023-04-11T09:53:51.017Z,2.60
2023-04-11T09:56:19.942Z,2.05
2023-04-11T09:58:49.990Z,2.40
2023-04-11T10:01:20.487Z,2.60
2023-04-11T10:03:51.072Z,2.80
2023-04-11T10:06:31.360Z,2.78
2023-04-11T10:09:08.375Z,2.53
2023-04-11T10:11:36.998Z,2.58
2023-04-11T10:14:06.561Z,2.30
2023-04-11T10:16:35.353Z,1.90
2023-04-11T10:19:26.077Z,2.20
2023-04-11T10:21:54.536Z,2.28
2023-04-11T10:24:23.260Z,1.60
2023-04-11T10:26:53.098Z,1.95
2023-04-11T10:29:49.990Z,1.38
2023-04-11T10:32:22.187Z,1.50
2023-04-11T10:35:20.721Z,1.60
2023-04-11T10:37:49.150Z,1.67
2023-04-11T10:40:20.345Z,1.52
2023-04-11T10:42:49.347Z,1.75
2023-04-11T10:45:26.538Z,1.40
2023-04-11T10:48:11.610Z,1.75
2023-04-11T10:50:44.583Z,1.90
2023-04-11T10:53:38.414Z,1.40
2023-04-11T10:56:07.181Z,1.60
2023-04-11T10:58:40.361Z,1.60
2023-04-11T11:01:31.512Z,1.48
2023-04-11T11:04:06.785Z,1.73
2023-04-11T11:06:46.037Z,1.73
2023-04-11T11:09:23.257Z,1.30
2023-04-11T11:12:07.573Z,1.90
2023-04-11T11:14:36.186Z,1.80
2023-04-11T11:17:06.744Z,1.70
2023-04-11T11:19:36.000Z,1.63
2023-04-11T11:22:05.014Z,1.92
2023-04-11T11:24:33.619Z,1.60
2023-04-11T11:27:01.854Z,4.60
2023-04-11T11:29:35.163Z,1.60
2023-04-11T11:32:05.639Z,1.50
2023-04-11T11:34:36.089Z,1.38
2023-04-11T11:37:05.499Z,1.23
2023-04-11T11:39:35.742Z,1.20
2023-04-11T11:42:04.467Z,1.00
2023-04-11T11:44:34.226Z,1.20
2023-04-11T11:47:03.679Z,1.60
2023-04-11T11:49:46.940Z,1.27
2023-04-11T11:52:33.079Z,1.10
2023-04-11T11:55:02.232Z,0.80
2023-04-11T11:57:30.813Z,0.80
2023-04-11T12:00:06.974Z,0.80
2023-04-11T12:02:36.822Z,0.68
2023-04-11T12:05:08.563Z,0.80
2023-04-11T12:07:39.364Z,0.90
2023-04-11T12:10:09.456Z,0.90
2023-04-11T12:12:38.963Z,1.10
2023-04-11T12:15:12.381Z,0.70
2023-04-11T12:17:42.304Z,1.00
2023-04-11T12:20:12.794Z,1.35
2023-04-11T12:22:41.085Z,1.23
2023-04-11T12:25:10.627Z,1.27
2023-04-11T12:27:39.819Z,1.42
2023-04-11T12:30:09.398Z,1.40
2023-04-11T12:32:38.911Z,1.48
2023-04-11T12:35:08.324Z,1.42
2023-04-11T12:37:38.497Z,1.52
2023-04-11T12:40:11.008Z,1.85
2023-04-11T12:45:13.821Z,1.50
2023-04-11T12:47:42.323Z,1.92
2023-04-11T12:50:11.828Z,1.55
2023-04-11T12:52:42.106Z,1.70
2023-04-11T12:55:14.325Z,1.75
2023-04-11T12:57:43.834Z,1.70
2023-04-11T13:00:13.442Z,1.80
2023-04-11T13:02:44.589Z,2.10
2023-04-11T13:05:15.708Z,1.55
2023-04-11T13:07:48.984Z,2.00
2023-04-11T13:10:17.897Z,2.20
2023-04-11T13:12:48.406Z,2.20
2023-04-11T13:15:17.951Z,2.22
2023-04-11T13:17:47.345Z,2.15
2023-04-11T13:20:15.991Z,1.80
2023-04-11T13:22:44.894Z,1.90
2023-04-11T13:25:14.667Z,2.50
2023-04-11T13:27:43.313Z,2.17
2023-04-11T13:30:13.198Z,1.85
2023-04-11T13:32:41.534Z,1.80
2023-04-11T13:35:10.776Z,1.45
2023-04-11T13:37:39.093Z,1.50
2023-04-11T13:40:11.170Z,2.40
2023-04-11T13:42:41.173Z,1.30
2023-04-11T13:45:11.949Z,1.20
2023-04-11T13:47:40.097Z,1.60
2023-04-11T13:50:10.327Z,1.80
2023-04-11T13:52:38.891Z,1.30
2023-04-11T13:55:07.987Z,1.23
2023-04-11T13:57:36.366Z,1.48
2023-04-11T14:00:11.548Z,1.40
2023-04-11T14:02:41.130Z,1.67
2023-04-11T14:05:10.546Z,1.48
2023-04-11T14:07:38.979Z,1.50
2023-04-11T14:10:08.215Z,1.42
2023-04-11T14:12:36.681Z,1.50
2023-04-11T14:15:14.987Z,1.30
2023-04-11T14:17:44.106Z,1.27
2023-04-11T14:20:12.872Z,1.10
2023-04-11T14:22:41.716Z,1.25
2023-04-11T14:25:11.254Z,1.00
2023-04-11T14:27:41.957Z,1.30
2023-04-11T14:30:13.737Z,1.10
2023-04-11T14:32:42.306Z,1.20
2023-04-11T14:35:11.179Z,1.67
2023-04-11T14:37:39.423Z,1.20
2023-04-11T14:40:11.739Z,2.45
2023-04-11T14:42:43.141Z,2.45
2023-04-11T14:45:12.958Z,1.30
2023-04-11T14:47:41.778Z,1.50
2023-04-11T14:50:11.350Z,0.95
2023-04-11T14:52:39.665Z,1.30
2023-04-11T14:55:09.753Z,1.45
2023-04-11T14:57:48.450Z,1.30
2023-04-11T15:00:20.346Z,1.38
2023-04-11T15:02:50.113Z,1.27
2023-04-11T15:05:19.709Z,1.40
2023-04-11T15:07:50.276Z,1.58
2023-04-11T15:10:20.423Z,1.75
2023-04-11T15:12:48.644Z,1.73
2023-04-11T15:15:18.953Z,1.80
2023-04-11T15:17:49.481Z,1.60
2023-04-11T15:20:19.823Z,1.58
2023-04-11T15:22:48.958Z,1.50
2023-04-11T15:25:17.491Z,1.63
2023-04-11T15:27:45.778Z,1.63
2023-04-11T15:30:18.640Z,2.08
2023-04-11T15:32:46.996Z,1.30
2023-04-11T15:35:15.960Z,1.48
2023-04-11T15:37:44.188Z,1.00
2023-04-11T15:40:15.259Z,1.10
2023-04-11T15:42:43.867Z,1.17
2023-04-11T15:45:13.007Z,0.90
2023-04-11T15:47:49.132Z,0.90
2023-04-11T15:50:17.770Z,1.08
2023-04-11T15:52:50.197Z,1.00
2023-04-11T15:55:19.107Z,0.95
2023-04-11T15:57:47.619Z,1.02
2023-04-11T16:00:19.784Z,0.93
2023-04-11T16:02:50.522Z,1.10
2023-04-11T16:05:20.868Z,1.20
2023-04-11T16:07:50.735Z,1.25
2023-04-11T16:10:19.126Z,1.08
2023-04-11T16:12:47.846Z,1.15
2023-04-11T16:15:16.261Z,1.10
2023-04-11T16:17:46.462Z,1.23
2023-04-11T16:20:18.745Z,1.15
2023-04-11T16:22:47.944Z,1.20
2023-04-11T16:25:22.135Z,1.10
2023-04-11T16:27:51.635Z,1.23
2023-04-11T16:30:20.562Z,1.23
2023-04-11T16:32:51.797Z,1.20
2023-04-11T16:35:21.873Z,1.00
2023-04-11T16:37:50.095Z,1.15
2023-04-11T16:40:18.867Z,1.33
2023-04-11T16:42:47.224Z,1.27
2023-04-11T16:45:16.510Z,1.20
2023-04-11T16:47:44.685Z,1.05
2023-04-11T16:50:13.029Z,0.98
2023-04-11T16:52:42.629Z,1.48
2023-04-11T16:55:11.922Z,1.30
2023-04-11T16:57:40.429Z,1.02
2023-04-11T17:00:13.348Z,1.08
2023-04-11T17:02:41.966Z,1.08
2023-04-11T17:05:11.281Z,1.20
2023-04-11T17:07:39.695Z,1.33
2023-04-11T17:10:10.822Z,1.02
2023-04-11T17:12:40.218Z,1.42
2023-04-11T17:15:09.456Z,1.27
2023-04-11T17:17:37.914Z,1.10
2023-04-11T17:20:09.607Z,1.05
2023-04-11T17:22:41.325Z,1.40
2023-04-11T17:25:11.958Z,1.60
2023-04-11T17:27:41.224Z,1.42
2023-04-11T17:30:11.938Z,1.35
2023-04-11T17:32:40.387Z,1.10
2023-04-11T17:35:09.436Z,1.40
2023-04-11T17:37:38.030Z,1.40
2023-04-11T17:40:13.234Z,1.25
2023-04-11T17:42:43.275Z,1.15
2023-04-11T17:47:45.259Z,1.23
2023-04-11T17:50:14.838Z,1.35
2023-04-11T17:52:45.224Z,1.42
2023-04-11T17:55:15.517Z,1.25
2023-04-11T17:57:48.719Z,1.13
2023-04-11T18:00:19.461Z,1.00
2023-04-11T18:02:50.138Z,1.30
2023-04-11T18:05:23.602Z,0.90
2023-04-11T18:07:54.777Z,1.05
2023-04-11T18:10:24.039Z,1.80
2023-04-11T18:12:55.142Z,1.60
2023-04-11T18:15:24.436Z,1.17
2023-04-11T18:17:53.306Z,1.02
2023-04-11T18:20:22.300Z,1.48
2023-04-11T18:22:54.521Z,1.15
2023-04-11T18:25:23.107Z,1.17
2023-04-11T18:27:51.645Z,1.40
2023-04-11T18:30:21.842Z,1.10
2023-04-11T18:32:51.735Z,1.38
2023-04-11T18:35:22.360Z,1.00
2023-04-11T18:37:51.089Z,1.10
2023-04-11T18:40:19.574Z,0.88
2023-04-11T18:42:52.049Z,1.23
2023-04-11T18:45:23.160Z,1.00
2023-04-11T18:47:51.894Z,0.85
2023-04-11T18:50:20.462Z,0.80
2023-04-11T18:53:04.826Z,1.17
2023-04-11T18:55:34.419Z,1.10
2023-04-11T18:58:04.115Z,1.05
2023-04-11T19:00:35.574Z,1.52
2023-04-11T19:03:05.121Z,1.70
2023-04-11T19:05:33.567Z,1.95
2023-04-11T19:08:01.928Z,2.03
2023-04-11T19:10:30.395Z,1.50
2023-04-11T19:12:59.112Z,1.25
2023-04-11T19:15:27.550Z,1.15
2023-04-11T19:17:57.588Z,1.02
2023-04-11T19:20:27.352Z,1.20
2023-04-11T19:22:55.795Z,1.60
2023-04-11T19:25:24.284Z,1.48
2023-04-11T19:27:52.980Z,2.13
2023-04-11T19:30:21.541Z,2.00
2023-04-11T19:32:50.672Z,1.10
2023-04-11T19:35:24.216Z,0.93
2023-04-11T19:37:53.223Z,1.15
2023-04-11T19:40:23.300Z,1.23
2023-04-11T19:42:52.299Z,1.00
2023-04-11T19:45:20.767Z,1.20
2023-04-11T19:47:49.522Z,1.70
2023-04-11T19:50:18.201Z,1.40
2023-04-11T19:52:47.914Z,1.75
2023-04-11T19:55:17.113Z,1.50
2023-04-11T19:57:46.179Z,1.63
2023-04-11T20:00:15.576Z,1.65
2023-04-11T20:02:45.945Z,1.73
2023-04-11T20:05:16.016Z,1.20
2023-04-11T20:07:45.484Z,1.80
2023-04-11T20:10:16.425Z,1.48
2023-04-11T20:12:44.668Z,1.65
2023-04-11T20:15:14.758Z,1.10
2023-04-11T20:17:45.232Z,1.40
2023-04-11T20:20:15.400Z,1.10
2023-04-11T20:22:45.687Z,1.00
2023-04-11T20:25:15.274Z,1.30
2023-04-11T20:27:46.126Z,2.40
2023-04-11T20:30:16.623Z,1.27
2023-04-11T20:32:45.632Z,1.90
2023-04-11T20:35:14.182Z,2.47
2023-04-11T20:37:43.965Z,1.52
2023-04-11T20:40:14.761Z,1.17
2023-04-11T20:42:45.704Z,1.98
2023-04-11T20:45:15.782Z,0.95
2023-04-11T20:47:46.253Z,1.27
2023-04-11T20:50:17.076Z,2.13
2023-04-11T20:52:47.475Z,1.80
2023-04-11T20:55:17.983Z,1.20
2023-04-11T20:57:46.099Z,1.20
2023-04-11T21:00:18.603Z,1.00
2023-04-11T21:02:50.092Z,1.23
2023-04-11T21:05:19.837Z,1.27
2023-04-11T21:07:48.280Z,1.40
2023-04-11T21:10:20.936Z,1.30
2023-04-11T21:12:51.592Z,1.58
2023-04-11T21:15:21.385Z,1.70
2023-04-11T21:17:50.538Z,1.48
2023-04-11T21:20:20.737Z,1.30
2023-04-11T21:22:50.639Z,1.40
2023-04-11T21:25:21.247Z,1.33
2023-04-11T21:27:49.903Z,1.83
2023-04-11T21:30:18.289Z,1.58
2023-04-11T21:32:47.108Z,1.33
2023-04-11T21:35:18.632Z,1.50
2023-04-11T21:37:59.087Z,1.45
2023-04-11T21:41:35.411Z,1.58
2023-04-11T21:44:19.659Z,1.60
2023-04-11T21:46:48.275Z,1.60
2023-04-11T21:49:16.723Z,1.48
2023-04-11T21:51:46.874Z,1.35
2023-04-11T21:54:16.232Z,1.55
2023-04-11T21:56:47.557Z,1.35
2023-04-11T21:59:40.957Z,1.40
2023-04-11T22:02:10.287Z,1.27
2023-04-11T22:04:51.307Z,1.65
2023-04-11T22:07:31.637Z,2.75
2023-04-11T22:10:09.247Z,1.35
2023-04-11T22:12:38.949Z,1.85
2023-04-11T22:15:12.621Z,1.60
2023-04-11T22:17:43.677Z,1.65
2023-04-11T22:20:13.819Z,1.17
2023-04-11T22:22:42.126Z,1.13
2023-04-11T22:25:11.519Z,1.30
2023-04-11T22:27:39.955Z,1.17
2023-04-11T22:30:14.619Z,1.25
2023-04-11T22:32:43.654Z,1.58
2023-04-11T22:35:13.611Z,1.70
2023-04-11T22:37:44.971Z,1.40
2023-04-11T22:40:15.444Z,1.33
2023-04-11T22:42:43.956Z,1.60
2023-04-11T22:45:14.003Z,1.10
2023-04-11T22:47:45.974Z,1.70
2023-04-11T22:50:18.765Z,1.55
2023-04-11T22:52:47.738Z,1.50
2023-04-11T22:55:18.355Z,1.83
2023-04-11T22:57:46.566Z,1.90
2023-04-11T23:00:19.266Z,1.60
2023-04-11T23:02:47.910Z,1.40
2023-04-11T23:05:16.863Z,1.50
2023-04-11T23:07:45.146Z,1.40
2023-04-11T23:10:15.594Z,1.85
2023-04-11T23:12:44.500Z,1.65
2023-04-11T23:15:13.577Z,1.48
2023-04-11T23:17:43.683Z,1.25
2023-04-11T23:20:15.505Z,1.23
2023-04-11T23:22:44.130Z,1.83
2023-04-11T23:25:15.591Z,2.03
2023-04-11T23:27:45.044Z,1.60
2023-04-11T23:30:15.179Z,1.40
2023-04-11T23:32:44.910Z,1.10
2023-04-11T23:35:13.498Z,1.10
2023-04-11T23:37:41.862Z,1.77
2023-04-11T23:40:13.958Z,1.38
2023-04-11T23:42:42.960Z,1.55
2023-04-11T23:45:14.278Z,1.45
2023-04-11T23:47:44.100Z,1.27
2023-04-11T23:50:13.616Z,1.25
2023-04-11T23:52:42.068Z,1.35
2023-04-11T23:55:11.051Z,1.33
2023-04-11T23:57:39.362Z,1.33
